Time;durP1;ratioP1;P1;durP2;ratioP2;P2;SDS_P1;SDS_P2;PMS_P1;PMS_P2;Temp;Humidity;BMP_temperature;BMP_pressure;BME280_temperature;BME280_humidity;BME280_pressure;Samples;Min_cycle;Max_cycle;Signal;HPM_P1;HPM_P2
2021/12/14 00:01:12;;;;;;;30.02;17.77;;;;;;;;;;5068146;27;96534;-74
2021/12/14 00:03:44;;;;;;;29.73;18.17;;;;;;;;;;5072243;27;95356;-74
2021/12/14 00:06:12;;;;;;;28.50;17.10;;;;;;;;;;5073410;27;97124;-74
2021/12/14 00:08:55;;;;;;;30.27;18.08;;;;;;;;;;5055465;27;96266;-74
2021/12/14 00:12:20;;;;;;;34.50;18.10;;;;;;;;;;5051974;27;95547;-74
2021/12/14 00:17:08;;;;;;;33.33;18.08;;;;;;;;;;5067433;27;97405;-74
2021/12/14 00:19:34;;;;;;;29.55;19.13;;;;;;;;;;5072849;27;95225;-73
2021/12/14 00:22:18;;;;;;;30.80;19.02;;;;;;;;;;5072462;27;97070;-74
2021/12/14 00:24:44;;;;;;;32.90;19.13;;;;;;;;;;5075535;27;97328;-74
2021/12/14 00:27:11;;;;;;;30.95;19.33;;;;;;;;;;5067747;27;96833;-74
2021/12/14 00:29:44;;;;;;;31.55;19.92;;;;;;;;;;5073017;27;97051;-74
2021/12/14 00:32:14;;;;;;;30.45;19.23;;;;;;;;;;5070331;27;95320;-73
2021/12/14 00:34:42;;;;;;;31.23;19.45;;;;;;;;;;5072078;27;96939;-73
2021/12/14 00:37:14;;;;;;;36.50;20.27;;;;;;;;;;5071346;27;97338;-74
2021/12/14 00:39:41;;;;;;;34.17;20.42;;;;;;;;;;5072721;27;95176;-75
2021/12/14 00:42:08;;;;;;;35.83;21.00;;;;;;;;;;5068317;27;96812;-75
2021/12/14 00:44:35;;;;;;;32.10;19.55;;;;;;;;;;5051871;27;97024;-75
2021/12/14 00:47:02;;;;;;;36.40;21.27;;;;;;;;;;5068293;27;96380;-73
2021/12/14 00:49:28;;;;;;;34.10;20.50;;;;;;;;;;5051880;27;97374;-74
2021/12/14 00:51:54;;;;;;;35.67;21.75;;;;;;;;;;5051972;27;95395;-73
2021/12/14 00:54:21;;;;;;;34.58;21.73;;;;;;;;;;5071987;27;96853;-74
2021/12/14 00:56:48;;;;;;;37.28;21.75;;;;;;;;;;5076301;27;97316;-74
2021/12/14 00:59:15;;;;;;;37.92;22.17;;;;;;;;;;5073847;27;95581;-73
2021/12/14 01:01:47;;;;;;;36.50;21.35;;;;;;;;;;5072036;27;96778;-73
2021/12/14 01:04:34;;;;;;;37.83;22.60;;;;;;;;;;5055005;27;97555;-74
2021/12/14 01:07:02;;;;;;;36.85;21.35;;;;;;;;;;5055361;27;95342;-74
2021/12/14 01:09:30;;;;;;;37.80;22.45;;;;;;;;;;5077058;27;95716;-74
2021/12/14 01:12:02;;;;;;;40.90;22.35;;;;;;;;;;5075277;27;95383;-73
2021/12/14 01:14:41;;;;;;;35.58;21.77;;;;;;;;;;5075274;27;96745;-73
2021/12/14 01:17:24;;;;;;;38.92;21.35;;;;;;;;;;5075795;27;97363;-73
2021/12/14 01:19:56;;;;;;;36.10;21.70;;;;;;;;;;5075537;27;95523;-73
2021/12/14 01:25:05;;;;;;;38.65;22.50;;;;;;;;;;5056995;27;97296;-75
2021/12/14 01:27:46;;;;;;;37.67;21.67;;;;;;;;;;5057117;27;95255;-75
2021/12/14 01:30:17;;;;;;;37.38;21.25;;;;;;;;;;5078836;27;96950;-75
2021/12/14 01:32:46;;;;;;;36.40;21.60;;;;;;;;;;5073461;27;95248;-75
2021/12/14 01:35:14;;;;;;;34.28;21.65;;;;;;;;;;5074725;27;96825;-75
2021/12/14 01:37:47;;;;;;;42.65;21.45;;;;;;;;;;5074629;27;97451;-75
2021/12/14 01:40:29;;;;;;;36.47;22.40;;;;;;;;;;5060631;27;95232;-75
2021/12/14 01:42:57;;;;;;;39.17;21.85;;;;;;;;;;5062767;27;96808;-74
2021/12/14 01:45:24;;;;;;;41.22;22.23;;;;;;;;;;5075179;27;97290;-75
2021/12/14 01:47:54;;;;;;;41.47;22.42;;;;;;;;;;5074657;27;95298;-74
2021/12/14 01:50:31;;;;;;;40.13;22.73;;;;;;;;;;5054921;27;96394;-75
2021/12/14 01:52:58;;;;;;;37.35;22.38;;;;;;;;;;5072113;27;97089;-75
2021/12/14 01:55:26;;;;;;;38.72;22.65;;;;;;;;;;5074688;27;96861;-75
2021/12/14 01:57:58;;;;;;;44.00;23.83;;;;;;;;;;5071817;27;97488;-73
2021/12/14 02:00:33;;;;;;;44.17;23.23;;;;;;;;;;5067499;27;95293;-75
2021/12/14 02:03:04;;;;;;;37.90;22.95;;;;;;;;;;5066741;27;96764;-75
2021/12/14 02:05:32;;;;;;;45.53;22.90;;;;;;;;;;5073746;27;98464;-75
2021/12/14 02:08:00;;;;;;;39.13;23.20;;;;;;;;;;5071799;27;95441;-74
2021/12/14 02:10:37;;;;;;;42.28;24.55;;;;;;;;;;5074072;27;96874;-75
2021/12/14 02:13:05;;;;;;;38.33;22.88;;;;;;;;;;5072670;27;97342;-75
2021/12/14 02:15:37;;;;;;;42.70;24.08;;;;;;;;;;5064043;27;95290;-75
2021/12/14 02:18:07;;;;;;;44.75;25.23;;;;;;;;;;5063712;27;97243;-75
2021/12/14 02:20:37;;;;;;;44.38;24.55;;;;;;;;;;5074798;27;95126;-74
2021/12/14 02:23:04;;;;;;;39.92;23.77;;;;;;;;;;5057836;27;96644;-74
2021/12/14 02:25:30;;;;;;;43.45;24.13;;;;;;;;;;5054473;27;97053;-75
2021/12/14 02:27:59;;;;;;;42.83;24.33;;;;;;;;;;5054560;27;94985;-75
2021/12/14 02:30:27;;;;;;;40.85;24.27;;;;;;;;;;5069575;27;97063;-74
2021/12/14 02:32:54;;;;;;;46.60;26.48;;;;;;;;;;5066634;27;97667;-75
2021/12/14 02:35:22;;;;;;;44.30;25.38;;;;;;;;;;5054516;27;96513;-74
2021/12/14 02:37:53;;;;;;;50.60;26.38;;;;;;;;;;5057093;27;95759;-74
2021/12/14 02:40:32;;;;;;;46.50;26.30;;;;;;;;;;5054668;27;96049;-74
2021/12/14 02:43:00;;;;;;;40.78;24.73;;;;;;;;;;5059292;27;96973;-75
2021/12/14 02:45:27;;;;;;;49.05;26.33;;;;;;;;;;5072736;27;97328;-74
2021/12/14 02:47:53;;;;;;;44.40;25.15;;;;;;;;;;5074915;27;95337;-74
2021/12/14 02:50:20;;;;;;;43.75;25.05;;;;;;;;;;5060678;27;96840;-74
2021/12/14 02:52:47;;;;;;;42.15;24.60;;;;;;;;;;5056718;27;97632;-75
2021/12/14 02:55:19;;;;;;;48.20;26.30;;;;;;;;;;5074269;27;95221;-75
2021/12/14 02:57:48;;;;;;;46.63;25.58;;;;;;;;;;5074259;27;97098;-75
2021/12/14 03:00:17;;;;;;;43.33;24.00;;;;;;;;;;5064297;27;97279;-74
2021/12/14 03:02:44;;;;;;;43.63;25.25;;;;;;;;;;5070229;27;96778;-75
2021/12/14 03:05:30;;;;;;;47.63;26.05;;;;;;;;;;5072180;27;97280;-75
2021/12/14 03:08:01;;;;;;;45.75;25.35;;;;;;;;;;5074343;27;95292;-75
2021/12/14 03:13:00;;;;;;;44.60;25.45;;;;;;;;;;5072716;27;97375;-74
2021/12/14 03:15:29;;;;;;;46.72;25.10;;;;;;;;;;5053510;27;95112;-74
2021/12/14 03:17:57;;;;;;;47.47;24.92;;;;;;;;;;5053277;27;96775;-74
2021/12/14 03:20:23;;;;;;;41.63;24.95;;;;;;;;;;5062287;27;97277;-75
2021/12/14 03:23:02;;;;;;;42.35;24.42;;;;;;;;;;5077327;27;95007;-75
2021/12/14 03:25:29;;;;;;;46.10;26.10;;;;;;;;;;5057534;27;97304;-75
2021/12/14 03:27:57;;;;;;;43.58;26.02;;;;;;;;;;5073879;27;96643;-74
2021/12/14 03:30:26;;;;;;;44.83;24.90;;;;;;;;;;5063921;27;96690;-75
2021/12/14 03:32:55;;;;;;;47.80;25.30;;;;;;;;;;5052744;27;97605;-74
2021/12/14 03:35:33;;;;;;;46.95;26.00;;;;;;;;;;5070762;27;95441;-75
2021/12/14 03:38:05;;;;;;;45.45;25.25;;;;;;;;;;5074231;27;96836;-74
2021/12/14 03:40:31;;;;;;;;;;;;;;;;;;5073391;27;97304;-75
2021/12/14 03:42:58;;;;;;;46.85;25.50;;;;;;;;;;5076197;27;119164;-75
2021/12/14 03:45:24;;;;;;;44.15;24.98;;;;;;;;;;5072538;27;97145;-75
2021/12/14 03:47:53;;;;;;;44.67;25.88;;;;;;;;;;5073221;27;95299;-75
2021/12/14 03:50:27;;;;;;;47.08;26.13;;;;;;;;;;5068077;27;97278;-75
2021/12/14 03:52:54;;;;;;;45.95;25.30;;;;;;;;;;5053010;27;97280;-75
2021/12/14 03:55:23;;;;;;;47.70;25.67;;;;;;;;;;5053502;27;95332;-75
2021/12/14 03:57:50;;;;;;;47.35;25.50;;;;;;;;;;5053242;27;96975;-75
2021/12/14 04:00:24;;;;;;;42.22;24.73;;;;;;;;;;5056928;27;97354;-75
2021/12/14 04:02:51;;;;;;;47.75;25.77;;;;;;;;;;5073015;27;95263;-75
2021/12/14 04:05:18;;;;;;;43.67;25.02;;;;;;;;;;5064304;27;96913;-75
2021/12/14 04:07:44;;;;;;;44.55;25.38;;;;;;;;;;5053247;27;95219;-74
2021/12/14 04:10:13;;;;;;;47.13;26.20;;;;;;;;;;5053019;27;96786;-75
2021/12/14 04:12:39;;;;;;;52.35;26.27;;;;;;;;;;5073156;27;97304;-75
2021/12/14 04:15:06;;;;;;;44.30;24.85;;;;;;;;;;5063323;27;95253;-76
2021/12/14 04:17:32;;;;;;;43.88;23.80;;;;;;;;;;5053156;27;96793;-75
2021/12/14 04:19:58;;;;;;;46.15;25.23;;;;;;;;;;5052719;27;97323;-75
2021/12/14 04:22:27;;;;;;;42.13;24.38;;;;;;;;;;5069581;27;96317;-75
2021/12/14 04:24:56;;;;;;;48.70;25.50;;;;;;;;;;5072601;27;96943;-75
2021/12/14 04:27:23;;;;;;;48.28;25.38;;;;;;;;;;5075868;27;97177;-75
2021/12/14 04:29:50;;;;;;;48.08;25.42;;;;;;;;;;5072566;27;96921;-75
2021/12/14 04:32:17;;;;;;;48.97;25.77;;;;;;;;;;5068403;27;97214;-74
2021/12/14 04:34:44;;;;;;;49.38;24.92;;;;;;;;;;5059341;27;95396;-75
2021/12/14 04:37:11;;;;;;;46.60;25.50;;;;;;;;;;5072381;27;96773;-75
2021/12/14 04:40:13;;;;;;;45.08;26.65;;;;;;;;;;5073075;27;97266;-74
2021/12/14 04:51:57;;;;;;;49.00;25.40;;;;;;;;;;5059791;27;97144;-74
2021/12/14 04:54:02;;;;;;;46.45;25.45;;;;;;;;;;5052088;27;97766;-74
2021/12/14 04:56:32;;;;;;;46.03;25.25;;;;;;;;;;5069717;27;95278;-74
2021/12/14 04:59:01;;;;;;;46.22;25.20;;;;;;;;;;5072450;27;96882;-74
2021/12/14 05:01:27;;;;;;;48.25;25.05;;;;;;;;;;5065871;27;95993;-74
2021/12/14 05:03:56;;;;;;;42.22;24.65;;;;;;;;;;5051000;27;95456;-74
2021/12/14 05:06:26;;;;;;;42.58;24.55;;;;;;;;;;5068174;27;96969;-74
2021/12/14 05:11:22;;;;;;;43.97;25.40;;;;;;;;;;5069744;27;96241;-75
2021/12/14 05:13:53;;;;;;;46.08;25.48;;;;;;;;;;5055281;27;96776;-74
2021/12/14 05:16:21;;;;;;;43.10;22.83;;;;;;;;;;5063998;27;95183;-74
2021/12/14 05:18:49;;;;;;;48.15;23.67;;;;;;;;;;5072282;27;96987;-75
2021/12/14 05:21:27;;;;;;;43.13;23.13;;;;;;;;;;5070746;27;97238;-74
2021/12/14 05:23:54;;;;;;;46.10;23.98;;;;;;;;;;5051862;27;95474;-75
2021/12/14 05:26:21;;;;;;;44.90;24.08;;;;;;;;;;5062721;27;96883;-75
2021/12/14 05:28:48;;;;;;;45.50;23.05;;;;;;;;;;5071587;27;97400;-74
2021/12/14 05:31:15;;;;;;;46.97;23.23;;;;;;;;;;5070909;27;95401;-74
2021/12/14 05:33:42;;;;;;;42.53;22.45;;;;;;;;;;5056775;27;96897;-74
2021/12/14 05:36:12;;;;;;;42.03;23.02;;;;;;;;;;5072724;27;95251;-74
2021/12/14 05:38:57;;;;;;;41.88;23.67;;;;;;;;;;5056139;27;97259;-74
2021/12/14 05:44:15;;;;;;;46.28;23.85;;;;;;;;;;5065138;27;95256;-74
2021/12/14 05:46:49;;;;;;;40.72;22.60;;;;;;;;;;5059765;27;95621;-74
2021/12/14 05:49:17;;;;;;;43.88;22.42;;;;;;;;;;5067094;27;97198;-74
2021/12/14 05:51:44;;;;;;;39.70;23.08;;;;;;;;;;5054935;27;95411;-74
2021/12/14 05:54:16;;;;;;;41.70;23.15;;;;;;;;;;5064489;27;96762;-74
2021/12/14 05:56:42;;;;;;;41.67;22.05;;;;;;;;;;5078236;27;97365;-74
2021/12/14 05:59:09;;;;;;;38.95;22.30;;;;;;;;;;5069684;27;96983;-75
2021/12/14 06:01:35;;;;;;;43.92;24.23;;;;;;;;;;5073273;27;97078;-74
2021/12/14 06:04:07;;;;;;;40.65;21.98;;;;;;;;;;5075090;27;95144;-75
2021/12/14 06:06:35;;;;;;;39.45;22.23;;;;;;;;;;5074884;27;96795;-74
2021/12/14 06:09:04;;;;;;;38.15;21.65;;;;;;;;;;5074788;27;97826;-75
2021/12/14 06:11:31;;;;;;;41.22;22.40;;;;;;;;;;5074909;27;95105;-74
2021/12/14 06:13:58;;;;;;;43.70;22.90;;;;;;;;;;5062056;27;96826;-74
2021/12/14 06:16:26;;;;;;;40.13;23.38;;;;;;;;;;5069576;27;97403;-74
2021/12/14 06:18:53;;;;;;;40.70;22.10;;;;;;;;;;5078252;27;95226;-75
2021/12/14 06:21:30;;;;;;;42.40;22.58;;;;;;;;;;5074771;27;97480;-74
2021/12/14 06:24:01;;;;;;;40.40;22.58;;;;;;;;;;5065489;27;95295;-74
2021/12/14 06:26:34;;;;;;;41.40;23.42;;;;;;;;;;5063164;27;97026;-74
2021/12/14 06:29:05;;;;;;;40.13;21.88;;;;;;;;;;5074459;27;97356;-74
2021/12/14 06:31:31;;;;;;;39.90;22.50;;;;;;;;;;5075037;27;95315;-74
2021/12/14 06:34:09;;;;;;;41.55;23.25;;;;;;;;;;5072802;27;97161;-74
2021/12/14 06:37:03;;;;;;;41.05;22.50;;;;;;;;;;5073254;27;96822;-74
2021/12/14 06:39:52;;;;;;;38.85;22.60;;;;;;;;;;5074812;27;95291;-74
2021/12/14 06:42:19;;;;;;;42.85;22.38;;;;;;;;;;5077065;27;96420;-75
2021/12/14 06:44:46;;;;;;;42.30;23.40;;;;;;;;;;5059841;27;95174;-75
2021/12/14 06:47:12;;;;;;;42.92;23.90;;;;;;;;;;5070396;27;96897;-75
2021/12/14 06:49:39;;;;;;;38.55;22.52;;;;;;;;;;5072321;27;97556;-75
2021/12/14 06:52:06;;;;;;;44.55;23.23;;;;;;;;;;5072848;27;95296;-75
2021/12/14 06:54:32;;;;;;;39.70;22.92;;;;;;;;;;5068426;27;96962;-73
2021/12/14 06:57:01;;;;;;;39.83;22.70;;;;;;;;;;5072269;27;97609;-76
2021/12/14 06:59:32;;;;;;;41.58;23.33;;;;;;;;;;5074573;27;95288;-76
2021/12/14 07:02:00;;;;;;;37.25;22.42;;;;;;;;;;5074215;27;97681;-76
2021/12/14 07:04:30;;;;;;;42.15;22.73;;;;;;;;;;5068708;27;97910;-73
2021/12/14 07:06:58;;;;;;;41.13;23.30;;;;;;;;;;5064516;27;96896;-76
2021/12/14 07:09:29;;;;;;;40.65;22.80;;;;;;;;;;5073672;27;97322;-76
2021/12/14 07:11:59;;;;;;;40.97;23.77;;;;;;;;;;5072717;27;95330;-74
2021/12/14 07:14:26;;;;;;;39.17;23.45;;;;;;;;;;5066497;27;96341;-73
2021/12/14 07:16:54;;;;;;;43.63;23.70;;;;;;;;;;5064062;27;97575;-74
2021/12/14 07:19:39;;;;;;;42.50;23.98;;;;;;;;;;5073082;27;95368;-73
2021/12/14 07:22:11;;;;;;;41.22;23.63;;;;;;;;;;5072748;27;96902;-73
2021/12/14 07:24:37;;;;;;;43.38;23.73;;;;;;;;;;5071781;27;97088;-73
2021/12/14 07:27:16;;;;;;;44.42;23.10;;;;;;;;;;5059387;27;95629;-73
2021/12/14 07:29:42;;;;;;;40.47;22.05;;;;;;;;;;5052713;27;97310;-73
2021/12/14 07:32:09;;;;;;;41.78;23.50;;;;;;;;;;5056715;27;95348;-74
2021/12/14 07:34:36;;;;;;;40.88;22.50;;;;;;;;;;5069041;27;97083;-74
2021/12/14 07:37:02;;;;;;;39.42;22.00;;;;;;;;;;5057133;27;97383;-73
2021/12/14 07:39:29;;;;;;;40.60;23.20;;;;;;;;;;5063114;27;95526;-73
2021/12/14 15:33:38;;;;;;;221.18;51.78;;;;;;;;;;5036650;27;1305400;-75
2021/12/14 15:36:08;;;;;;;191.43;50.95;;;;;;;;;;5065457;27;97206;-75
2021/12/14 15:38:59;;;;;;;225.00;61.20;;;;;;;;;;5059288;27;95436;-75
2021/12/14 15:41:27;;;;;;;198.65;50.72;;;;;;;;;;5054232;27;97371;-75
2021/12/14 15:44:02;;;;;;;193.13;54.40;;;;;;;;;;5060863;27;97521;-76
2021/12/14 15:46:33;;;;;;;177.73;47.00;;;;;;;;;;5047615;27;95306;-76
2021/12/14 15:49:00;;;;;;;188.50;57.57;;;;;;;;;;5054697;27;96776;-75
2021/12/14 15:51:28;;;;;;;183.65;45.65;;;;;;;;;;5048189;27;97534;-76
2021/12/14 15:53:58;;;;;;;182.05;45.17;;;;;;;;;;5053955;27;95345;-75
2021/12/14 15:56:29;;;;;;;151.73;45.10;;;;;;;;;;5050668;27;97340;-76
2021/12/14 15:59:00;;;;;;;169.30;45.63;;;;;;;;;;5053770;27;95365;-75
2021/12/14 16:01:35;;;;;;;148.45;43.08;;;;;;;;;;5048840;27;96794;-76
2021/12/14 16:04:07;;;;;;;139.73;42.00;;;;;;;;;;5062768;27;97620;-75
2021/12/14 16:06:35;;;;;;;145.85;42.63;;;;;;;;;;5050006;27;95528;-76
2021/12/14 16:09:04;;;;;;;129.43;40.15;;;;;;;;;;5060978;27;97089;-75
2021/12/14 16:11:44;;;;;;;139.13;42.38;;;;;;;;;;5058060;27;97459;-75
2021/12/14 16:17:00;;;;;;;121.63;39.08;;;;;;;;;;5056498;27;96941;-74
2021/12/14 16:19:29;;;;;;;142.65;40.55;;;;;;;;;;5060013;27;95589;-75
2021/12/14 16:22:10;;;;;;;118.18;39.45;;;;;;;;;;5055759;27;97037;-75
2021/12/14 16:24:36;;;;;;;119.93;38.70;;;;;;;;;;5049710;27;97329;-75
2021/12/14 16:27:03;;;;;;;121.32;38.17;;;;;;;;;;5058130;27;97053;-75
2021/12/14 16:29:31;;;;;;;132.85;39.00;;;;;;;;;;5056928;27;96758;-75
2021/12/14 16:31:57;;;;;;;132.93;39.95;;;;;;;;;;5060390;27;97150;-75
2021/12/14 16:34:24;;;;;;;129.10;39.85;;;;;;;;;;5053233;27;95419;-75
2021/12/14 16:36:53;;;;;;;139.40;40.17;;;;;;;;;;5066280;27;96755;-75
2021/12/14 16:39:21;;;;;;;113.30;38.65;;;;;;;;;;5066353;27;97358;-75
2021/12/14 16:41:49;;;;;;;126.88;40.38;;;;;;;;;;5064984;27;97236;-75
2021/12/14 16:44:17;;;;;;;114.65;38.35;;;;;;;;;;5056587;27;97751;-75
2021/12/14 16:47:05;;;;;;;119.88;39.25;;;;;;;;;;5050400;27;96205;-75
2021/12/14 16:49:34;;;;;;;124.13;39.78;;;;;;;;;;5045749;27;97243;-75
2021/12/14 16:52:02;;;;;;;130.63;39.30;;;;;;;;;;5046806;27;97291;-75
2021/12/14 16:54:29;;;;;;;114.90;38.17;;;;;;;;;;5033236;27;96099;-76
2021/12/14 16:56:57;;;;;;;128.95;39.00;;;;;;;;;;5051053;27;96581;-75
2021/12/14 16:59:26;;;;;;;112.95;39.17;;;;;;;;;;5037655;27;97058;-75
2021/12/14 17:01:58;;;;;;;131.40;39.35;;;;;;;;;;5050411;27;95345;-75
2021/12/14 17:04:26;;;;;;;107.25;35.83;;;;;;;;;;5040004;27;96857;-75
2021/12/14 17:06:53;;;;;;;113.78;36.85;;;;;;;;;;5053226;27;95286;-75
2021/12/14 17:09:22;;;;;;;122.18;37.83;;;;;;;;;;5046733;27;96836;-75
2021/12/14 17:11:50;;;;;;;113.07;37.35;;;;;;;;;;5052172;27;97267;-75
2021/12/14 17:14:24;;;;;;;113.65;36.05;;;;;;;;;;5038507;27;95194;-75
2021/12/14 17:16:59;;;;;;;120.95;37.38;;;;;;;;;;5039363;27;96810;-74
2021/12/14 17:19:26;;;;;;;118.70;37.58;;;;;;;;;;5036806;27;96177;-74
2021/12/14 17:21:54;;;;;;;119.15;36.90;;;;;;;;;;5032639;27;95075;-74
2021/12/14 17:24:23;;;;;;;93.40;32.85;;;;;;;;;;5047073;27;96759;-74
2021/12/14 17:27:09;;;;;;;92.90;34.10;;;;;;;;;;5052720;27;96018;-75
2021/12/14 17:29:37;;;;;;;99.45;33.75;;;;;;;;;;5035860;27;96875;-75
2021/12/14 17:32:06;;;;;;;96.22;33.55;;;;;;;;;;5031829;27;97317;-75
2021/12/14 17:34:35;;;;;;;101.55;32.65;;;;;;;;;;5044600;27;95320;-75
2021/12/14 17:37:06;;;;;;;105.30;33.45;;;;;;;;;;5052582;27;96706;-75
2021/12/14 17:39:35;;;;;;;91.18;34.15;;;;;;;;;;5047246;27;97388;-76
2021/12/14 17:42:05;;;;;;;90.53;32.45;;;;;;;;;;5032844;27;95431;-76
2021/12/14 17:44:33;;;;;;;95.32;34.22;;;;;;;;;;5043763;27;96945;-76
2021/12/14 17:47:11;;;;;;;98.68;33.50;;;;;;;;;;5054366;27;95349;-76
2021/12/14 17:49:40;;;;;;;95.30;34.00;;;;;;;;;;5051806;27;96928;-75
2021/12/14 17:52:08;;;;;;;101.20;35.40;;;;;;;;;;5031038;27;96097;-76
2021/12/14 17:54:41;;;;;;;104.30;35.15;;;;;;;;;;5044232;27;96488;-75
2021/12/14 17:57:18;;;;;;;96.78;34.05;;;;;;;;;;5072623;27;96688;-75
2021/12/14 17:59:47;;;;;;;105.10;33.90;;;;;;;;;;5045078;27;97362;-74
2021/12/14 18:02:14;;;;;;;107.60;34.20;;;;;;;;;;5032483;27;96576;-74
2021/12/14 18:04:41;;;;;;;94.32;32.80;;;;;;;;;;5032011;27;96652;-75
2021/12/14 18:07:08;;;;;;;97.78;33.17;;;;;;;;;;5034534;28;97254;-75
2021/12/14 18:09:35;;;;;;;104.15;34.90;;;;;;;;;;5035395;27;96767;-75
2021/12/14 18:12:11;;;;;;;91.35;33.80;;;;;;;;;;5051169;27;97621;-75
2021/12/14 18:14:44;;;;;;;104.03;34.70;;;;;;;;;;5051129;27;95216;-75
2021/12/14 18:17:18;;;;;;;101.60;34.90;;;;;;;;;;5039092;27;96471;-75
2021/12/14 18:19:45;;;;;;;109.70;34.25;;;;;;;;;;5047502;27;97140;-75
2021/12/14 18:22:15;;;;;;;95.07;34.17;;;;;;;;;;5032151;27;95256;-75
2021/12/14 18:24:44;;;;;;;110.85;35.70;;;;;;;;;;5043057;27;96589;-75
2021/12/14 18:27:12;;;;;;;95.93;35.88;;;;;;;;;;5051323;27;97324;-75
2021/12/14 18:29:41;;;;;;;112.22;36.85;;;;;;;;;;5054515;27;95390;-75
2021/12/14 18:32:09;;;;;;;100.97;36.22;;;;;;;;;;5050402;27;96215;-75
2021/12/14 18:34:36;;;;;;;116.03;38.33;;;;;;;;;;5051035;27;95184;-75
2021/12/14 18:37:05;;;;;;;106.28;36.88;;;;;;;;;;5044238;27;96778;-76
2021/12/14 18:39:35;;;;;;;111.10;37.63;;;;;;;;;;5046673;27;97380;-76
2021/12/14 18:42:04;;;;;;;105.03;37.60;;;;;;;;;;5042239;27;96372;-76
2021/12/14 18:45:55;;;;;;;96.60;35.47;;;;;;;;;;5002460;27;1276184;-84
2021/12/14 18:51:08;;;;;;;95.72;34.08;;;;;;;;;;5032929;27;95285;-85
2021/12/14 18:53:37;;;;;;;87.80;33.38;;;;;;;;;;5028466;27;96691;-76
2021/12/14 18:56:05;;;;;;;104.47;36.33;;;;;;;;;;5027678;27;97273;-76
2021/12/14 18:58:37;;;;;;;107.05;37.15;;;;;;;;;;5023051;27;95363;-77
2021/12/14 19:01:15;;;;;;;108.18;36.33;;;;;;;;;;5020448;27;96579;-75
2021/12/14 19:04:06;;;;;;;109.28;36.50;;;;;;;;;;5025146;27;96262;-76
2021/12/14 19:06:35;;;;;;;109.47;38.05;;;;;;;;;;5028481;27;95377;-74
2021/12/14 19:09:15;;;;;;;103.60;38.55;;;;;;;;;;5018271;27;97381;-75
2021/12/14 19:11:41;;;;;;;109.32;39.25;;;;;;;;;;5029194;27;95197;-76
2021/12/14 19:14:11;;;;;;;105.47;37.95;;;;;;;;;;5032051;27;96803;-75
2021/12/14 19:16:40;;;;;;;113.70;38.20;;;;;;;;;;5040239;27;97717;-76
2021/12/14 19:19:09;;;;;;;119.85;40.15;;;;;;;;;;5018385;27;96811;-76
2021/12/14 19:21:38;;;;;;;107.80;37.88;;;;;;;;;;5033370;27;97129;-75
2021/12/14 19:24:07;;;;;;;130.45;38.08;;;;;;;;;;5028201;27;97671;-77
2021/12/14 19:26:49;;;;;;;125.10;42.50;;;;;;;;;;5035965;27;96159;-77
2021/12/14 19:29:18;;;;;;;110.25;40.65;;;;;;;;;;5036697;27;96780;-76
2021/12/14 19:31:50;;;;;;;113.68;42.17;;;;;;;;;;5032509;27;95999;-76
2021/12/14 19:34:18;;;;;;;117.55;41.88;;;;;;;;;;5029697;27;96666;-75
2021/12/14 19:36:46;;;;;;;136.40;42.38;;;;;;;;;;5039118;27;97045;-75
2021/12/14 19:39:13;;;;;;;125.35;45.35;;;;;;;;;;5031160;27;95312;-73
2021/12/14 19:41:40;;;;;;;120.22;43.75;;;;;;;;;;5032723;27;96830;-75
2021/12/14 19:44:26;;;;;;;126.78;43.70;;;;;;;;;;5031904;27;99325;-76
2021/12/14 19:47:06;;;;;;;129.85;44.17;;;;;;;;;;5034262;27;96218;-76
2021/12/14 19:49:34;;;;;;;149.32;48.63;;;;;;;;;;5022301;27;97007;-76
2021/12/14 19:52:02;;;;;;;134.85;45.58;;;;;;;;;;5034259;27;97852;-76
2021/12/14 19:54:32;;;;;;;145.05;47.38;;;;;;;;;;5034904;27;96772;-76
2021/12/14 19:57:00;;;;;;;140.57;47.45;;;;;;;;;;5014649;27;97310;-76
2021/12/14 19:59:32;;;;;;;128.55;45.20;;;;;;;;;;5007089;28;95208;-76
2021/12/14 20:01:59;;;;;;;148.33;46.63;;;;;;;;;;5011731;28;95659;-76
2021/12/14 20:04:32;;;;;;;143.48;46.03;;;;;;;;;;5023481;28;96887;-76
2021/12/14 20:07:02;;;;;;;139.70;46.33;;;;;;;;;;5009598;27;95228;-76
2021/12/14 20:09:35;;;;;;;135.65;46.60;;;;;;;;;;5010863;28;97078;-76
2021/12/14 20:12:12;;;;;;;142.40;46.25;;;;;;;;;;5007389;28;97468;-75
2021/12/14 20:14:49;;;;;;;139.75;48.38;;;;;;;;;;5028894;28;95405;-75
2021/12/14 20:17:25;;;;;;;131.20;46.60;;;;;;;;;;5011720;28;97544;-74
2021/12/14 20:19:58;;;;;;;149.97;50.00;;;;;;;;;;5008127;28;95289;-74
2021/12/14 20:22:24;;;;;;;134.13;46.25;;;;;;;;;;5016830;28;97052;-75
2021/12/14 20:24:52;;;;;;;152.23;53.40;;;;;;;;;;5026996;28;97371;-76
2021/12/14 20:27:41;;;;;;;135.15;47.03;;;;;;;;;;5011946;28;95418;-76
2021/12/14 20:30:08;;;;;;;129.05;47.80;;;;;;;;;;5013970;28;96923;-76
2021/12/14 20:32:40;;;;;;;135.95;48.05;;;;;;;;;;5015857;28;97383;-75
2021/12/14 20:35:15;;;;;;;141.07;49.00;;;;;;;;;;5024395;27;95367;-76
2021/12/14 20:37:47;;;;;;;136.70;47.38;;;;;;;;;;5025659;28;96799;-76
2021/12/14 20:40:14;;;;;;;129.63;46.17;;;;;;;;;;5017123;27;95319;-77
2021/12/14 20:45:52;;;;;;;136.18;47.75;;;;;;;;;;5021187;27;97910;-75
2021/12/14 20:48:44;;;;;;;128.60;46.35;;;;;;;;;;5022966;28;95408;-76
2021/12/14 20:51:22;;;;;;;142.10;46.88;;;;;;;;;;5016018;27;95399;-76
2021/12/14 20:53:51;;;;;;;130.77;43.58;;;;;;;;;;5028123;28;97746;-76
2021/12/14 20:56:19;;;;;;;135.77;42.83;;;;;;;;;;5011592;28;95277;-76
2021/12/14 20:58:51;;;;;;;140.77;47.20;;;;;;;;;;5016440;28;96708;-76
2021/12/14 21:01:17;;;;;;;;;;;;;;;;;;5013304;28;95404;-76
2021/12/14 21:03:44;;;;;;;124.43;41.47;;;;;;;;;;5012156;28;126288;-76
2021/12/14 21:06:13;;;;;;;113.85;42.75;;;;;;;;;;5011736;28;97387;-76
2021/12/14 21:08:46;;;;;;;128.32;41.85;;;;;;;;;;4998895;28;95426;-76
2021/12/14 21:11:13;;;;;;;129.13;43.78;;;;;;;;;;5002809;28;96887;-77
2021/12/14 21:13:40;;;;;;;130.75;42.70;;;;;;;;;;5011649;28;97211;-76
2021/12/14 21:16:23;;;;;;;128.85;45.33;;;;;;;;;;5008190;28;95349;-76
2021/12/14 21:18:49;;;;;;;;;;;;;;;;;;5004238;28;96791;-76
2021/12/14 21:21:16;;;;;;;133.32;41.22;;;;;;;;;;5014306;28;127058;-76
2021/12/14 21:23:42;;;;;;;121.63;39.10;;;;;;;;;;5010907;28;96813;-76
2021/12/14 21:26:09;;;;;;;124.78;39.83;;;;;;;;;;5009556;28;97292;-76
2021/12/14 21:28:37;;;;;;;121.45;39.35;;;;;;;;;;5013111;28;95776;-76
2021/12/14 21:31:07;;;;;;;114.57;37.25;;;;;;;;;;5012563;28;97035;-76
2021/12/14 21:33:40;;;;;;;120.22;40.83;;;;;;;;;;5011503;28;97797;-75
2021/12/14 21:36:09;;;;;;;134.25;43.47;;;;;;;;;;5011472;28;95478;-75
2021/12/14 21:38:41;;;;;;;146.15;43.55;;;;;;;;;;5012917;28;97083;-75
2021/12/14 21:41:15;;;;;;;119.25;41.88;;;;;;;;;;5012047;28;97288;-76
2021/12/14 21:43:49;;;;;;;136.00;43.95;;;;;;;;;;5014732;28;95365;-74
2021/12/14 21:46:38;;;;;;;121.65;44.80;;;;;;;;;;5011607;28;97207;-75
2021/12/14 21:49:05;;;;;;;122.50;40.05;;;;;;;;;;5010579;28;95180;-75
2021/12/14 21:51:32;;;;;;;130.48;44.33;;;;;;;;;;5011505;28;97101;-76
2021/12/14 21:53:59;;;;;;;129.25;41.33;;;;;;;;;;5011901;28;97368;-75
2021/12/14 21:56:25;;;;;;;148.75;44.70;;;;;;;;;;5011009;28;95281;-75
2021/12/14 21:58:53;;;;;;;131.38;42.38;;;;;;;;;;5010913;28;97187;-75
2021/12/14 22:01:19;;;;;;;139.88;42.92;;;;;;;;;;5009111;28;97343;-76
2021/12/14 22:03:46;;;;;;;137.35;42.92;;;;;;;;;;5012164;28;95413;-76
2021/12/14 22:06:15;;;;;;;130.38;41.90;;;;;;;;;;5014206;28;96617;-75
2021/12/14 22:08:41;;;;;;;134.98;43.05;;;;;;;;;;5000740;28;95323;-75
2021/12/14 22:11:12;;;;;;;137.40;42.58;;;;;;;;;;5007766;28;97407;-75
2021/12/14 22:13:40;;;;;;;149.73;42.83;;;;;;;;;;5012044;28;97261;-76
2021/12/14 22:16:11;;;;;;;148.68;42.83;;;;;;;;;;5012394;28;95259;-75
2021/12/14 22:18:38;;;;;;;134.50;42.23;;;;;;;;;;5010734;28;98617;-75
2021/12/14 22:21:05;;;;;;;141.25;41.00;;;;;;;;;;5011950;28;97317;-75
2021/12/14 22:23:35;;;;;;;131.60;41.42;;;;;;;;;;5012064;28;95369;-75
2021/12/14 22:26:03;;;;;;;143.18;41.92;;;;;;;;;;5011436;28;96721;-75
2021/12/14 22:28:29;;;;;;;146.68;43.38;;;;;;;;;;5012782;28;97353;-76
2021/12/14 22:30:56;;;;;;;154.88;43.90;;;;;;;;;;5004123;28;96710;-76
2021/12/14 22:33:23;;;;;;;149.60;43.03;;;;;;;;;;5010521;28;97393;-75
2021/12/14 22:35:51;;;;;;;150.93;43.65;;;;;;;;;;5012083;28;95050;-75
2021/12/14 22:38:18;;;;;;;151.80;40.60;;;;;;;;;;5011305;28;97175;-76
2021/12/14 22:46:10;;;;;;;136.45;41.47;;;;;;;;;;5011855;28;96736;-75
2021/12/14 22:48:37;;;;;;;145.02;41.90;;;;;;;;;;5008924;28;97411;-74
2021/12/14 22:51:04;;;;;;;142.40;41.70;;;;;;;;;;5011796;28;95483;-74
2021/12/14 22:53:30;;;;;;;152.68;42.50;;;;;;;;;;5010912;28;98083;-74
2021/12/14 22:55:56;;;;;;;144.18;42.55;;;;;;;;;;5011986;28;95155;-75
2021/12/14 22:58:23;;;;;;;138.32;41.75;;;;;;;;;;5011126;28;95653;-75